createdAt,value
2017-05-21T00:02:03.217Z,42.80
2017-05-21T00:04:32.098Z,42.90
2017-05-21T00:07:01.018Z,42.30
2017-05-21T00:09:29.898Z,43.30
2017-05-21T00:11:58.784Z,42.60
2017-05-21T00:14:27.709Z,42.60
2017-05-21T00:16:56.600Z,42.70
2017-05-21T00:19:25.486Z,42.70
2017-05-21T00:21:54.400Z,42.20
2017-05-21T00:24:23.286Z,41.80
2017-05-21T00:26:51.401Z,41.70
2017-05-21T00:29:20.327Z,41.60
2017-05-21T00:31:49.214Z,41.70
2017-05-21T00:34:18.097Z,41.90
2017-05-21T00:36:47.017Z,42.00
2017-05-21T00:39:15.907Z,41.50
2017-05-21T00:41:44.817Z,41.20
2017-05-21T00:44:13.736Z,41.30
2017-05-21T00:46:42.620Z,41.60
2017-05-21T00:49:11.510Z,41.60
2017-05-21T00:51:40.428Z,41.90
2017-05-21T00:54:09.312Z,42.30
2017-05-21T00:56:38.204Z,42.80
2017-05-21T00:59:07.120Z,43.20
2017-05-21T01:01:36.006Z,45.70
2017-05-21T01:04:04.890Z,47.50
2017-05-21T01:06:33.817Z,49.40
2017-05-21T01:09:02.701Z,50.40
2017-05-21T01:11:31.589Z,48.00
2017-05-21T01:13:59.842Z,47.80
2017-05-21T01:16:28.721Z,50.30
2017-05-21T01:18:57.613Z,52.50
2017-05-21T01:21:26.529Z,51.00
2017-05-21T01:23:55.414Z,52.10
2017-05-21T01:26:24.289Z,53.10
2017-05-21T01:28:52.440Z,53.30
2017-05-21T01:31:21.325Z,60.20
2017-05-21T01:33:50.214Z,59.60
2017-05-21T01:36:19.142Z,65.90
2017-05-21T01:38:48.049Z,66.40
2017-05-21T01:41:16.940Z,66.40
2017-05-21T01:43:45.860Z,70.00
2017-05-21T01:46:14.748Z,71.00
2017-05-21T01:48:43.638Z,71.80
2017-05-21T01:51:12.568Z,65.20
2017-05-21T01:53:41.465Z,68.10
2017-05-21T01:56:10.354Z,70.10
2017-05-21T01:58:39.271Z,69.20
2017-05-21T02:01:08.157Z,68.30
2017-05-21T02:03:37.044Z,72.40
2017-05-21T02:06:05.970Z,72.50
2017-05-21T02:08:34.862Z,72.60
2017-05-21T02:11:03.749Z,74.90
2017-05-21T02:13:32.767Z,75.80
2017-05-21T02:16:01.669Z,74.30
2017-05-21T02:18:30.553Z,75.60
2017-05-21T02:20:59.470Z,76.50
2017-05-21T02:23:28.567Z,77.80
2017-05-21T02:25:57.448Z,77.80
2017-05-21T02:28:26.366Z,78.10
2017-05-21T02:30:55.258Z,78.50
2017-05-21T02:33:24.145Z,77.20
2017-05-21T02:35:53.070Z,76.90
2017-05-21T02:38:21.963Z,80.10
2017-05-21T02:40:50.849Z,81.90
2017-05-21T02:43:19.860Z,82.70
2017-05-21T02:45:48.749Z,81.80
2017-05-21T02:48:17.633Z,83.20
2017-05-21T02:50:46.549Z,80.60
2017-05-21T02:53:15.441Z,81.20
2017-05-21T02:55:44.329Z,81.20
2017-05-21T02:58:13.461Z,76.00
2017-05-21T03:00:42.346Z,75.70
2017-05-21T03:03:11.239Z,77.10
2017-05-21T03:05:40.231Z,77.00
2017-05-21T03:08:09.125Z,76.40
2017-05-21T03:10:38.009Z,77.30
2017-05-21T03:13:06.932Z,76.60
2017-05-21T03:15:35.821Z,77.50
2017-05-21T03:18:04.714Z,76.00
2017-05-21T03:20:33.647Z,75.40
2017-05-21T03:23:02.537Z,75.30
2017-05-21T03:25:31.413Z,77.20
2017-05-21T03:28:00.342Z,74.90
2017-05-21T03:30:29.220Z,76.30
2017-05-21T03:32:58.109Z,77.90
2017-05-21T03:35:27.026Z,77.40
2017-05-21T03:37:55.917Z,80.30
2017-05-21T03:40:24.803Z,81.80
2017-05-21T03:42:53.743Z,78.50
2017-05-21T03:45:22.630Z,77.70
2017-05-21T03:47:51.509Z,81.00
2017-05-21T03:50:20.434Z,78.60
2017-05-21T03:52:49.314Z,77.10
2017-05-21T03:55:18.205Z,78.50
2017-05-21T03:57:47.130Z,82.00
2017-05-21T04:00:16.017Z,83.80
2017-05-21T04:02:44.905Z,77.40
2017-05-21T04:05:14.182Z,77.70
2017-05-21T04:07:43.066Z,76.60
2017-05-21T04:10:11.956Z,78.60
2017-05-21T04:12:40.897Z,77.00
2017-05-21T04:15:09.785Z,76.90
2017-05-21T04:17:38.680Z,76.10
2017-05-21T04:20:07.722Z,79.50
2017-05-21T04:22:36.609Z,78.10
2017-05-21T04:25:05.501Z,77.50
2017-05-21T04:27:34.417Z,73.20
2017-05-21T04:30:03.300Z,76.80
2017-05-21T04:32:32.188Z,76.80
2017-05-21T04:35:01.120Z,76.60
2017-05-21T04:37:30.008Z,79.60
2017-05-21T04:39:58.893Z,81.10
2017-05-21T04:42:27.925Z,75.20
2017-05-21T04:44:56.815Z,73.80
2017-05-21T04:47:25.698Z,74.80
2017-05-21T04:49:54.898Z,74.70
2017-05-21T04:52:23.782Z,78.00
2017-05-21T04:54:52.671Z,72.10
2017-05-21T04:57:21.601Z,70.90
2017-05-21T04:59:50.503Z,67.80
2017-05-21T05:02:19.390Z,69.70
2017-05-21T05:04:48.405Z,71.30
2017-05-21T05:07:17.296Z,69.60
2017-05-21T05:09:46.196Z,68.30
2017-05-21T05:12:15.134Z,67.40
2017-05-21T05:14:44.026Z,66.60
2017-05-21T05:17:12.912Z,66.10
2017-05-21T05:19:41.928Z,65.60
2017-05-21T05:22:10.814Z,65.30
2017-05-21T05:24:39.696Z,64.70
2017-05-21T05:27:08.824Z,65.20
2017-05-21T05:29:37.712Z,65.40
2017-05-21T05:32:06.595Z,64.10
2017-05-21T05:34:35.541Z,63.40
2017-05-21T05:37:04.434Z,62.80
2017-05-21T05:39:33.347Z,65.00
2017-05-21T05:42:02.289Z,63.30
2017-05-21T05:44:31.182Z,62.80
2017-05-21T05:47:00.069Z,62.30
2017-05-21T05:49:29.005Z,61.70
2017-05-21T05:51:57.889Z,63.00
2017-05-21T05:54:27.203Z,59.80
2017-05-21T05:56:56.120Z,59.70
2017-05-21T05:59:25.016Z,61.40
2017-05-21T06:01:53.929Z,59.70
2017-05-21T06:04:22.852Z,59.30
2017-05-21T06:06:51.749Z,59.40
2017-05-21T06:09:20.680Z,59.20
2017-05-21T06:11:49.602Z,59.50
2017-05-21T06:14:18.493Z,59.10
2017-05-21T06:16:47.382Z,59.60
2017-05-21T06:19:15.545Z,59.50
2017-05-21T06:21:44.433Z,60.00
2017-05-21T06:24:13.321Z,60.00
2017-05-21T06:26:42.239Z,59.80
2017-05-21T06:29:11.122Z,59.20
2017-05-21T06:31:40.017Z,60.10
2017-05-21T06:34:08.936Z,59.30
2017-05-21T06:36:37.814Z,58.90
2017-05-21T06:39:06.696Z,58.40
2017-05-21T06:41:35.630Z,57.80
2017-05-21T06:44:04.512Z,57.50
2017-05-21T06:46:33.397Z,59.20
2017-05-21T06:49:02.321Z,57.20
2017-05-21T06:51:31.214Z,58.00
2017-05-21T06:54:00.102Z,58.60
2017-05-21T06:56:29.058Z,57.70
2017-05-21T06:58:57.934Z,58.10
2017-05-21T07:01:26.842Z,57.20
2017-05-21T07:03:55.795Z,56.90
2017-05-21T07:06:24.690Z,57.30
2017-05-21T07:08:52.803Z,57.30
2017-05-21T07:11:21.733Z,57.60
2017-05-21T07:13:50.618Z,57.30
2017-05-21T07:16:19.552Z,56.20
2017-05-21T07:18:48.697Z,57.00
2017-05-21T07:21:17.578Z,56.80
2017-05-21T07:23:46.466Z,55.90
2017-05-21T07:26:15.390Z,56.20
2017-05-21T07:28:44.285Z,55.60
2017-05-21T07:31:13.174Z,56.60
2017-05-21T07:33:42.118Z,56.40
2017-05-21T07:36:11.016Z,55.80
2017-05-21T07:38:39.908Z,55.50
2017-05-21T07:41:08.834Z,56.10
2017-05-21T07:43:37.737Z,55.80
2017-05-21T07:46:06.624Z,55.10
2017-05-21T07:48:35.554Z,54.90
2017-05-21T07:51:04.444Z,53.60
2017-05-21T07:53:33.321Z,53.80
2017-05-21T07:56:02.245Z,53.90
2017-05-21T07:58:31.129Z,53.20
2017-05-21T08:01:00.017Z,53.90
2017-05-21T08:03:28.933Z,54.30
2017-05-21T08:05:57.820Z,54.50
2017-05-21T08:08:26.709Z,54.50
2017-05-21T08:10:55.629Z,56.10
2017-05-21T08:13:24.507Z,55.40
2017-05-21T08:15:53.398Z,54.20
2017-05-21T08:18:22.326Z,54.70
2017-05-21T08:20:51.221Z,54.30
2017-05-21T08:23:20.109Z,54.00
2017-05-21T08:25:49.036Z,54.50
2017-05-21T08:28:17.932Z,52.30
2017-05-21T08:30:46.817Z,52.60
2017-05-21T08:33:15.762Z,52.80
2017-05-21T08:35:44.637Z,53.70
2017-05-21T08:38:13.525Z,53.30
2017-05-21T08:40:42.449Z,53.70
2017-05-21T08:43:11.344Z,53.60
2017-05-21T08:45:40.246Z,53.50
2017-05-21T08:48:09.167Z,54.00
2017-05-21T08:50:38.049Z,53.30
2017-05-21T08:53:07.456Z,53.10
2017-05-21T08:55:38.958Z,52.50
2017-05-21T08:58:08.352Z,51.90
2017-05-21T09:00:39.756Z,52.70
2017-05-21T09:03:09.158Z,53.30
2017-05-21T09:05:39.577Z,52.00
2017-05-21T09:08:08.988Z,53.10
2017-05-21T09:10:38.407Z,51.70
2017-05-21T09:13:08.693Z,52.70
2017-05-21T09:15:38.114Z,51.90
2017-05-21T09:18:07.518Z,52.00
2017-05-21T09:20:36.445Z,52.00
2017-05-21T09:23:05.331Z,50.10
2017-05-21T09:25:34.215Z,50.20
2017-05-21T09:28:03.137Z,49.80
2017-05-21T09:30:32.021Z,49.40
2017-05-21T09:33:00.913Z,49.60
2017-05-21T09:35:29.837Z,49.40
2017-05-21T09:37:58.717Z,48.70
2017-05-21T09:40:27.603Z,48.70
2017-05-21T09:42:56.533Z,49.60
2017-05-21T09:45:25.409Z,48.70
2017-05-21T09:47:54.295Z,49.50
2017-05-21T09:50:23.305Z,49.80
2017-05-21T09:52:52.220Z,49.50
2017-05-21T09:55:21.110Z,49.30
2017-05-21T09:57:50.129Z,49.00
2017-05-21T10:00:19.014Z,48.90
2017-05-21T10:02:47.903Z,48.70
2017-05-21T10:05:16.925Z,48.40
2017-05-21T10:07:45.809Z,48.00
2017-05-21T10:10:14.692Z,49.00
2017-05-21T10:12:43.710Z,48.10
2017-05-21T10:15:12.593Z,49.00
2017-05-21T10:17:41.479Z,48.00
2017-05-21T10:20:10.407Z,48.60
2017-05-21T10:22:39.293Z,49.10
2017-05-21T10:25:08.174Z,47.90
2017-05-21T10:27:37.093Z,47.20
2017-05-21T10:30:05.978Z,47.70
2017-05-21T10:32:34.861Z,46.80
2017-05-21T10:35:03.894Z,47.40
2017-05-21T10:37:32.772Z,47.80
2017-05-21T10:40:01.666Z,46.00
2017-05-21T10:42:30.594Z,46.20
2017-05-21T10:44:59.473Z,45.30
2017-05-21T10:47:28.363Z,47.80
2017-05-21T10:49:57.276Z,46.80
2017-05-21T10:52:26.169Z,45.00
2017-05-21T10:54:55.066Z,45.30
2017-05-21T10:57:24.074Z,45.10
2017-05-21T10:59:52.957Z,44.30
2017-05-21T11:02:21.845Z,43.20
2017-05-21T11:04:50.776Z,44.20
2017-05-21T11:07:19.690Z,43.30
2017-05-21T11:09:48.578Z,44.00
2017-05-21T11:12:17.499Z,42.90
2017-05-21T11:14:46.391Z,44.20
2017-05-21T11:17:15.277Z,41.90
2017-05-21T11:19:44.193Z,40.20
2017-05-21T11:22:13.081Z,39.90
2017-05-21T11:24:41.964Z,41.60
2017-05-21T11:27:10.881Z,40.40
2017-05-21T11:29:39.764Z,41.10
2017-05-21T11:32:08.654Z,38.00
2017-05-21T11:34:37.569Z,38.00
2017-05-21T11:37:06.461Z,40.50
2017-05-21T11:39:35.345Z,39.30
2017-05-21T11:42:04.590Z,37.70
2017-05-21T11:44:33.581Z,36.50
2017-05-21T11:47:02.509Z,35.40
2017-05-21T11:49:31.386Z,36.80
2017-05-21T11:52:00.267Z,36.10
2017-05-21T11:54:29.157Z,36.60
2017-05-21T11:56:58.075Z,34.00
2017-05-21T11:59:26.959Z,35.80
2017-05-21T12:01:55.845Z,34.40
2017-05-21T12:04:24.770Z,37.70
2017-05-21T12:06:53.664Z,34.20
2017-05-21T12:09:22.541Z,33.70
2017-05-21T12:11:51.556Z,36.00
2017-05-21T12:14:20.439Z,33.10
2017-05-21T12:16:49.322Z,36.00
2017-05-21T12:19:18.246Z,32.60
2017-05-21T12:21:47.129Z,31.90
2017-05-21T12:24:16.019Z,33.20
2017-05-21T12:26:44.942Z,32.30
2017-05-21T12:29:14.286Z,31.90
2017-05-21T12:31:43.168Z,32.50
2017-05-21T12:34:12.521Z,31.30
2017-05-21T12:36:41.412Z,31.60
2017-05-21T12:39:10.298Z,28.00
2017-05-21T12:41:39.305Z,27.50
2017-05-21T12:44:08.194Z,25.30
2017-05-21T12:46:36.310Z,25.20
2017-05-21T12:49:05.226Z,23.30
2017-05-21T12:51:34.118Z,23.50
2017-05-21T12:54:03.009Z,23.40
2017-05-21T12:56:31.933Z,23.40
2017-05-21T12:59:00.812Z,22.10
2017-05-21T13:01:29.697Z,22.00
2017-05-21T13:03:58.620Z,21.40
2017-05-21T13:06:27.513Z,19.80
2017-05-21T13:08:56.397Z,19.90
2017-05-21T13:11:25.325Z,19.60
2017-05-21T13:13:54.210Z,19.70
2017-05-21T13:16:23.094Z,19.40
2017-05-21T13:18:52.008Z,19.60
2017-05-21T13:21:20.890Z,18.80
2017-05-21T13:23:49.769Z,19.00
2017-05-21T13:26:18.694Z,18.80
2017-05-21T13:28:47.581Z,19.70
2017-05-21T13:31:16.467Z,18.80
2017-05-21T13:33:45.387Z,19.40
2017-05-21T13:36:14.273Z,18.00
2017-05-21T13:38:43.157Z,18.50
2017-05-21T13:41:12.084Z,18.80
2017-05-21T13:43:40.969Z,19.50
2017-05-21T13:46:09.852Z,17.60
2017-05-21T13:48:38.775Z,18.00
2017-05-21T13:51:07.658Z,18.10
2017-05-21T13:53:36.537Z,17.00
2017-05-21T13:56:05.457Z,17.80
2017-05-21T13:58:34.342Z,18.50
2017-05-21T14:01:02.470Z,18.40
2017-05-21T14:03:31.389Z,16.80
2017-05-21T14:06:00.276Z,17.30
2017-05-21T14:08:29.153Z,17.90
2017-05-21T14:10:58.097Z,16.60
2017-05-21T14:13:26.985Z,17.80
2017-05-21T14:15:55.869Z,16.90
2017-05-21T14:18:24.789Z,16.60
2017-05-21T14:20:53.676Z,18.90
2017-05-21T14:23:22.561Z,19.30
2017-05-21T14:25:51.678Z,19.40
2017-05-21T14:28:20.557Z,21.20
2017-05-21T14:30:49.454Z,21.90
2017-05-21T14:33:18.493Z,21.60
2017-05-21T14:35:47.449Z,21.10
2017-05-21T14:38:16.346Z,19.60
2017-05-21T14:40:45.376Z,20.00
2017-05-21T14:43:14.299Z,19.90
2017-05-21T14:45:43.185Z,19.40
2017-05-21T14:48:12.111Z,21.40
2017-05-21T14:50:40.993Z,20.90
2017-05-21T14:53:09.878Z,22.40
2017-05-21T14:55:38.807Z,22.10
2017-05-21T14:58:07.695Z,23.80
2017-05-21T15:00:36.577Z,24.50
2017-05-21T15:03:05.496Z,23.40
2017-05-21T15:05:34.386Z,22.70
2017-05-21T15:08:03.274Z,22.60
2017-05-21T15:10:32.197Z,22.40
2017-05-21T15:13:01.086Z,21.70
2017-05-21T15:15:29.974Z,21.00
2017-05-21T15:17:58.898Z,21.60
2017-05-21T15:20:27.786Z,21.90
2017-05-21T15:22:56.961Z,21.50
2017-05-21T15:25:25.876Z,21.70
2017-05-21T15:27:54.766Z,21.20
2017-05-21T15:30:23.654Z,22.20
2017-05-21T15:32:52.575Z,22.70
2017-05-21T15:35:21.458Z,23.10
2017-05-21T15:37:50.347Z,24.30
2017-05-21T15:40:19.287Z,25.00
2017-05-21T15:42:48.176Z,26.60
2017-05-21T15:45:17.078Z,26.80
2017-05-21T15:47:46.092Z,28.10
2017-05-21T15:50:14.973Z,28.10
2017-05-21T15:52:43.855Z,28.90
2017-05-21T15:55:12.773Z,29.80
2017-05-21T15:57:41.661Z,31.20
2017-05-21T16:00:10.548Z,31.70
2017-05-21T16:02:39.466Z,33.10
2017-05-21T16:05:08.345Z,32.90
2017-05-21T16:07:37.236Z,32.40
2017-05-21T16:10:06.182Z,32.60
2017-05-21T16:12:35.089Z,32.30
2017-05-21T16:15:03.976Z,33.30
2017-05-21T16:17:32.901Z,32.60
2017-05-21T16:20:01.788Z,32.80
2017-05-21T16:22:30.677Z,33.00
2017-05-21T16:24:59.606Z,33.30
2017-05-21T16:27:28.494Z,34.00
2017-05-21T16:29:57.381Z,34.00
2017-05-21T16:32:26.310Z,35.90
2017-05-21T16:34:55.196Z,35.00
2017-05-21T16:37:24.104Z,35.40
2017-05-21T16:39:53.284Z,35.40
2017-05-21T16:42:22.155Z,36.40
2017-05-21T16:44:51.041Z,35.60
2017-05-21T16:47:19.965Z,36.30
2017-05-21T16:49:48.853Z,36.40
2017-05-21T16:52:17.736Z,37.20
2017-05-21T16:54:46.666Z,37.90
2017-05-21T16:57:15.552Z,37.10
2017-05-21T16:59:44.433Z,38.40
2017-05-21T17:02:13.358Z,38.50
2017-05-21T17:04:42.245Z,37.40
2017-05-21T17:07:11.130Z,38.10
2017-05-21T17:09:40.045Z,37.90
2017-05-21T17:12:08.933Z,38.50
2017-05-21T17:14:37.843Z,38.80
2017-05-21T17:17:05.993Z,38.70
2017-05-21T17:19:34.882Z,38.80
2017-05-21T17:22:03.781Z,38.80
2017-05-21T17:24:32.708Z,39.10
2017-05-21T17:27:01.590Z,39.20
2017-05-21T17:29:30.476Z,39.60
2017-05-21T17:31:59.396Z,39.30
2017-05-21T17:34:28.286Z,40.30
2017-05-21T17:36:57.168Z,41.90
2017-05-21T17:39:26.090Z,41.20
2017-05-21T17:41:54.977Z,40.20
2017-05-21T17:44:23.865Z,40.40
2017-05-21T17:46:52.793Z,40.30
2017-05-21T17:49:21.685Z,41.00
2017-05-21T17:51:50.568Z,41.70
2017-05-21T17:54:19.489Z,41.60
2017-05-21T17:56:48.372Z,40.80
2017-05-21T17:59:17.307Z,41.30
2017-05-21T18:01:46.246Z,41.80
2017-05-21T18:04:15.256Z,43.10
2017-05-21T18:06:44.158Z,42.20
2017-05-21T18:09:13.286Z,44.00
2017-05-21T18:11:42.170Z,44.40
2017-05-21T18:14:11.357Z,43.90
2017-05-21T18:16:40.239Z,44.30
2017-05-21T18:19:09.142Z,43.70
2017-05-21T18:21:38.170Z,43.90
2017-05-21T18:24:07.088Z,43.20
2017-05-21T18:26:35.981Z,43.60
2017-05-21T18:29:04.998Z,42.90
2017-05-21T18:31:33.885Z,43.80
2017-05-21T18:34:02.761Z,43.10
2017-05-21T18:36:32.404Z,44.50
2017-05-21T18:39:01.287Z,44.40
2017-05-21T18:41:30.179Z,44.20
2017-05-21T18:43:59.092Z,43.80
2017-05-21T18:46:27.978Z,44.30
2017-05-21T18:48:56.873Z,43.80
2017-05-21T18:51:25.804Z,44.10
2017-05-21T18:53:54.696Z,44.10
2017-05-21T18:56:23.586Z,44.50
2017-05-21T18:58:52.504Z,44.50
2017-05-21T19:01:21.388Z,44.50
2017-05-21T19:03:50.284Z,46.00
2017-05-21T19:06:19.402Z,46.00
2017-05-21T19:08:48.302Z,45.20
2017-05-21T19:11:17.190Z,46.70
2017-05-21T19:13:46.199Z,45.70
2017-05-21T19:16:15.176Z,46.40
2017-05-21T19:18:44.102Z,46.40
2017-05-21T19:21:13.125Z,46.80
2017-05-21T19:23:42.840Z,46.80
2017-05-21T19:26:11.729Z,47.50
2017-05-21T19:28:40.657Z,47.30
2017-05-21T19:31:09.543Z,47.80
2017-05-21T19:33:38.433Z,48.70
2017-05-21T19:36:07.366Z,46.40
2017-05-21T19:38:36.240Z,47.10
2017-05-21T19:41:05.124Z,47.60
2017-05-21T19:43:34.053Z,47.30
2017-05-21T19:46:02.942Z,47.30
2017-05-21T19:48:31.829Z,48.00
2017-05-21T19:51:01.079Z,47.70
2017-05-21T19:53:29.966Z,49.30
2017-05-21T19:55:58.855Z,49.80
2017-05-21T19:58:27.787Z,50.10
2017-05-21T20:00:56.668Z,50.10
2017-05-21T20:03:25.552Z,50.50
2017-05-21T20:05:54.479Z,51.20
2017-05-21T20:08:23.374Z,51.80
2017-05-21T20:10:53.159Z,52.40
2017-05-21T20:13:22.116Z,52.90
2017-05-21T20:15:51.028Z,53.60
2017-05-21T20:18:19.927Z,53.70
2017-05-21T20:20:48.951Z,55.10
2017-05-21T20:23:17.830Z,54.90
2017-05-21T20:25:46.754Z,55.20
2017-05-21T20:28:15.678Z,55.30
2017-05-21T20:30:44.641Z,56.20
2017-05-21T20:33:13.577Z,56.60
2017-05-21T20:35:42.464Z,56.90
2017-05-21T20:38:11.400Z,57.20
2017-05-21T20:40:40.282Z,57.20
2017-05-21T20:43:09.169Z,57.60
2017-05-21T20:45:38.109Z,57.90
2017-05-21T20:48:07.000Z,58.40
2017-05-21T20:50:35.892Z,58.70
2017-05-21T20:53:04.825Z,59.00
2017-05-21T20:55:33.713Z,59.20
2017-05-21T20:58:02.597Z,59.50
2017-05-21T21:00:31.529Z,59.80
2017-05-21T21:03:00.420Z,60.40
2017-05-21T21:05:29.313Z,60.80
2017-05-21T21:07:58.229Z,61.60
2017-05-21T21:10:27.121Z,61.70
2017-05-21T21:12:56.009Z,62.00
2017-05-21T21:15:24.938Z,62.30
2017-05-21T21:17:53.825Z,62.70
2017-05-21T21:20:22.712Z,62.20
2017-05-21T21:22:51.624Z,63.00
2017-05-21T21:25:20.516Z,63.40
2017-05-21T21:27:49.407Z,62.90
2017-05-21T21:30:18.333Z,63.20
2017-05-21T21:32:47.213Z,63.40
2017-05-21T21:35:16.107Z,63.70
2017-05-21T21:37:45.020Z,63.00
2017-05-21T21:40:13.913Z,64.10
2017-05-21T21:42:42.793Z,63.80
2017-05-21T21:45:11.721Z,63.90
2017-05-21T21:47:40.614Z,64.50
2017-05-21T21:50:09.505Z,64.30
2017-05-21T21:52:38.422Z,64.30
2017-05-21T21:55:07.364Z,64.70
2017-05-21T21:57:36.214Z,65.40
2017-05-21T22:00:05.125Z,65.30
2017-05-21T22:02:34.009Z,65.80
2017-05-21T22:05:02.891Z,65.90
2017-05-21T22:07:31.809Z,65.90
2017-05-21T22:10:00.709Z,66.00
2017-05-21T22:12:29.599Z,66.10
2017-05-21T22:14:58.522Z,66.10
2017-05-21T22:17:27.405Z,66.70
2017-05-21T22:19:56.293Z,67.00
2017-05-21T22:22:25.214Z,66.50
2017-05-21T22:24:54.105Z,66.40
2017-05-21T22:27:22.986Z,66.70
2017-05-21T22:29:51.912Z,67.00
2017-05-21T22:32:20.801Z,66.70
2017-05-21T22:34:49.692Z,66.60
2017-05-21T22:37:18.733Z,67.20
2017-05-21T22:39:47.624Z,67.50
2017-05-21T22:42:16.511Z,68.00
2017-05-21T22:44:45.437Z,68.20
2017-05-21T22:47:14.327Z,68.30
2017-05-21T22:49:43.210Z,68.60
2017-05-21T22:52:12.126Z,69.00
2017-05-21T22:54:41.020Z,69.30
2017-05-21T22:57:09.896Z,69.30
2017-05-21T22:59:38.827Z,69.00
2017-05-21T23:02:07.717Z,69.00
2017-05-21T23:04:36.606Z,69.40
2017-05-21T23:07:05.535Z,69.30
2017-05-21T23:09:34.429Z,69.50
2017-05-21T23:12:03.308Z,70.00
2017-05-21T23:14:32.233Z,70.50
2017-05-21T23:17:01.117Z,70.30
2017-05-21T23:19:30.018Z,70.40
2017-05-21T23:21:59.233Z,69.80
2017-05-21T23:24:28.120Z,70.00
2017-05-21T23:26:57.015Z,70.40
2017-05-21T23:29:25.934Z,69.80
2017-05-21T23:31:54.825Z,70.20
2017-05-21T23:34:23.711Z,70.30
2017-05-21T23:36:52.625Z,70.10
2017-05-21T23:39:21.515Z,70.00
2017-05-21T23:41:50.397Z,70.60
2017-05-21T23:44:19.321Z,70.70
2017-05-21T23:46:48.216Z,71.00
2017-05-21T23:49:17.107Z,71.00
2017-05-21T23:51:46.034Z,70.40
2017-05-21T23:54:14.921Z,70.50
2017-05-21T23:56:43.817Z,70.70
2017-05-21T23:59:12.740Z,70.80
